createdAt,value
2019-03-02T00:00:08.057Z,100788.92
2019-03-02T00:02:41.511Z,100794.95
2019-03-02T00:05:13.393Z,100799.74
2019-03-02T00:07:47.791Z,100798.39
2019-03-02T00:10:18.725Z,100797.89
2019-03-02T00:12:50.557Z,100799.16
2019-03-02T00:15:22.367Z,100799.16
2019-03-02T00:17:55.086Z,100794.36
2019-03-02T00:20:27.133Z,100789.18
2019-03-02T00:22:58.948Z,100796.98
2019-03-02T00:25:34.067Z,100799.08
2019-03-02T00:28:04.380Z,100798.73
2019-03-02T00:30:36.183Z,100796.91
2019-03-02T00:33:08.039Z,100800.37
2019-03-02T00:35:43.577Z,100800.43
2019-03-02T00:38:13.328Z,100799.95
2019-03-02T00:40:45.195Z,100798.09
2019-03-02T00:43:17.005Z,100803.75
2019-03-02T00:45:49.757Z,100801.14
2019-03-02T00:48:21.614Z,100800.70
2019-03-02T00:50:53.453Z,100802.02
2019-03-02T00:53:25.309Z,100804.20
2019-03-02T00:55:57.121Z,100808.94
2019-03-02T00:58:29.821Z,100804.13
2019-03-02T01:01:01.656Z,100802.38
2019-03-02T01:03:34.581Z,100803.25
2019-03-02T01:06:08.981Z,100801.92
2019-03-02T01:08:39.966Z,100809.73
2019-03-02T01:11:11.784Z,100812.38
2019-03-02T01:13:43.614Z,100804.97
2019-03-02T01:16:16.778Z,100807.66
2019-03-02T01:18:49.019Z,100803.19
2019-03-02T01:21:20.827Z,100799.70
2019-03-02T01:23:52.666Z,100802.70
2019-03-02T01:26:24.795Z,100801.82
2019-03-02T01:28:56.772Z,100802.68
2019-03-02T01:31:28.589Z,100806.55
2019-03-02T01:34:00.672Z,100799.20
2019-03-02T01:36:33.945Z,100794.43
2019-03-02T01:39:08.460Z,100794.87
2019-03-02T01:41:41.064Z,100792.69
2019-03-02T01:44:16.248Z,100792.28
2019-03-02T01:46:46.366Z,100798.04
2019-03-02T01:49:18.158Z,100801.88
2019-03-02T01:51:49.992Z,100807.45
2019-03-02T01:54:22.070Z,100801.75
2019-03-02T01:56:53.903Z,100792.98
2019-03-02T01:59:25.744Z,100799.14
2019-03-02T02:02:00.147Z,100799.99
2019-03-02T02:04:31.452Z,100796.18
2019-03-02T02:07:03.228Z,100800.44
2019-03-02T02:09:40.360Z,100796.91
2019-03-02T02:12:08.680Z,100796.94
2019-03-02T02:14:40.667Z,100801.72
2019-03-02T02:17:14.447Z,100791.23
2019-03-02T02:19:45.970Z,100794.23
2019-03-02T02:22:19.076Z,100796.82
2019-03-02T02:24:51.911Z,100792.42
2019-03-02T02:27:23.849Z,100793.27
2019-03-02T02:29:55.634Z,100793.66
2019-03-02T02:32:27.466Z,100797.58
2019-03-02T02:35:01.080Z,100795.77
2019-03-02T02:37:36.975Z,100796.60
2019-03-02T02:40:08.121Z,100785.17
2019-03-02T02:42:43.337Z,100784.22
2019-03-02T02:45:16.864Z,100778.59
2019-03-02T02:47:51.906Z,100773.31
2019-03-02T02:50:29.598Z,100772.44
2019-03-02T02:52:56.972Z,100775.55
2019-03-02T02:55:28.779Z,100769.81
2019-03-02T02:58:00.604Z,100782.06
2019-03-02T03:00:32.515Z,100774.31
2019-03-02T03:03:04.920Z,100777.00
2019-03-02T03:05:36.732Z,100772.70
2019-03-02T03:08:08.597Z,100770.53
2019-03-02T03:10:41.906Z,100768.84
2019-03-02T03:13:13.716Z,100765.88
2019-03-02T03:15:51.895Z,100765.45
2019-03-02T03:18:23.736Z,100767.20
2019-03-02T03:20:55.568Z,100767.02
2019-03-02T03:23:27.394Z,100767.88
2019-03-02T03:25:59.236Z,100759.60
2019-03-02T03:28:32.626Z,100757.89
2019-03-02T03:31:04.577Z,100755.70
2019-03-02T03:33:43.289Z,100758.72
2019-03-02T03:36:09.898Z,100759.17
2019-03-02T03:38:43.019Z,100762.31
2019-03-02T03:41:16.657Z,100747.94
2019-03-02T03:43:51.032Z,100747.84
2019-03-02T03:46:26.685Z,100749.55
2019-03-02T03:48:58.213Z,100752.95
2019-03-02T03:51:36.147Z,100756.42
2019-03-02T03:54:11.768Z,100756.05
2019-03-02T03:56:44.472Z,100759.11
2019-03-02T03:59:18.955Z,100760.89
2019-03-02T04:01:56.818Z,100760.48
2019-03-02T04:04:30.590Z,100758.72
2019-03-02T04:07:09.151Z,100760.08
2019-03-02T04:09:46.881Z,100762.72
2019-03-02T04:12:24.414Z,100759.25
2019-03-02T04:14:56.991Z,100765.78
2019-03-02T04:17:28.673Z,100764.02
2019-03-02T04:20:00.485Z,100762.29
2019-03-02T04:22:32.321Z,100764.02
2019-03-02T04:25:04.126Z,100764.36
2019-03-02T04:27:35.944Z,100761.24
2019-03-02T04:30:08.668Z,100762.07
2019-03-02T04:32:40.465Z,100759.46
2019-03-02T04:35:12.382Z,100759.96
2019-03-02T04:37:45.295Z,100752.50
2019-03-02T04:40:17.123Z,100755.07
2019-03-02T04:42:50.201Z,100759.37
2019-03-02T04:45:22.507Z,100755.00
2019-03-02T04:47:54.674Z,100748.02
2019-03-02T04:50:27.194Z,100748.89
2019-03-02T04:53:01.305Z,100751.94
2019-03-02T04:55:33.155Z,100750.15
2019-03-02T04:58:04.995Z,100758.09
2019-03-02T05:00:36.855Z,100761.94
2019-03-02T05:03:08.690Z,100755.42
2019-03-02T05:05:43.215Z,100746.30
2019-03-02T05:08:14.514Z,100751.55
2019-03-02T05:10:46.613Z,100747.60
2019-03-02T05:13:18.703Z,100745.87
2019-03-02T05:15:52.331Z,100746.30
2019-03-02T05:18:24.296Z,100754.61
2019-03-02T05:20:56.455Z,100745.42
2019-03-02T05:23:30.557Z,100748.81
2019-03-02T05:26:04.662Z,100750.98
2019-03-02T05:28:39.695Z,100747.91
2019-03-02T05:31:13.819Z,100747.11
2019-03-02T05:33:46.999Z,100744.09
2019-03-02T05:36:18.950Z,100738.44
2019-03-02T05:38:50.789Z,100737.13
2019-03-02T05:41:22.620Z,100740.17
2019-03-02T05:43:54.534Z,100738.87
2019-03-02T05:46:26.882Z,100742.37
2019-03-02T05:48:58.708Z,100744.68
2019-03-02T05:51:30.489Z,100743.45
2019-03-02T05:54:06.449Z,100750.97
2019-03-02T05:56:36.375Z,100756.20
2019-03-02T05:59:08.219Z,100761.00
2019-03-02T06:01:40.514Z,100757.93
2019-03-02T06:04:13.015Z,100758.80
2019-03-02T06:06:44.846Z,100759.69
2019-03-02T06:09:17.758Z,100758.43
2019-03-02T06:11:49.623Z,100761.90
2019-03-02T06:14:21.472Z,100761.41
2019-03-02T06:16:53.829Z,100760.95
2019-03-02T06:19:30.514Z,100755.31
2019-03-02T06:22:32.792Z,100752.28
2019-03-02T06:25:05.231Z,100759.22
2019-03-02T06:27:37.031Z,100763.16
2019-03-02T06:30:11.344Z,100756.73
2019-03-02T06:32:43.182Z,100754.57
2019-03-02T06:35:14.986Z,100764.62
2019-03-02T06:37:46.904Z,100764.33
2019-03-02T06:40:20.125Z,100756.56
2019-03-02T06:42:53.966Z,100760.36
2019-03-02T06:45:26.012Z,100764.33
2019-03-02T06:47:57.854Z,100764.86
2019-03-02T06:50:31.706Z,100770.09
2019-03-02T06:53:03.164Z,100769.72
2019-03-02T06:55:35.082Z,100766.27
2019-03-02T06:58:06.950Z,100765.83
2019-03-02T07:00:38.798Z,100764.91
2019-03-02T07:03:11.188Z,100757.89
2019-03-02T07:05:43.247Z,100759.25
2019-03-02T07:08:15.072Z,100764.98
2019-03-02T07:10:46.891Z,100762.87
2019-03-02T07:13:21.212Z,100767.67
2019-03-02T07:15:52.362Z,100764.33
2019-03-02T07:18:52.406Z,100763.55
2019-03-02T07:21:24.252Z,100767.45
2019-03-02T07:23:56.433Z,100772.66
2019-03-02T07:26:28.218Z,100766.22
2019-03-02T07:29:00.018Z,100771.05
2019-03-02T07:31:31.886Z,100772.87
2019-03-02T07:34:04.847Z,100772.46
2019-03-02T07:36:37.198Z,100775.55
2019-03-02T07:39:09.146Z,100785.61
2019-03-02T07:41:41.028Z,100782.51
2019-03-02T07:57:13.436Z,100774.82
2019-03-02T08:00:46.868Z,100773.48
2019-03-02T08:09:25.836Z,100779.34
2019-03-02T08:12:00.414Z,100788.07
2019-03-02T08:14:49.118Z,100789.41
2019-03-02T08:17:09.844Z,100789.03
2019-03-02T08:19:48.476Z,100786.45
2019-03-02T08:22:19.351Z,100791.31
2019-03-02T08:24:51.349Z,100789.19
2019-03-02T08:27:23.415Z,100787.07
2019-03-02T08:29:57.353Z,100789.28
2019-03-02T08:32:29.206Z,100785.78
2019-03-02T08:35:02.287Z,100783.24
2019-03-02T08:37:35.642Z,100781.44
2019-03-02T08:40:08.690Z,100785.81
2019-03-02T08:42:40.530Z,100776.17
2019-03-02T08:45:15.723Z,100774.05
2019-03-02T08:47:47.674Z,100778.02
2019-03-02T08:50:19.918Z,100785.51
2019-03-02T08:52:52.007Z,100782.44
2019-03-02T08:55:23.903Z,100782.02
2019-03-02T08:57:57.386Z,100780.72
2019-03-02T09:00:29.506Z,100785.10
2019-03-02T09:03:01.338Z,100772.82
2019-03-02T09:05:45.125Z,100776.31
2019-03-02T09:08:06.725Z,100772.91
2019-03-02T09:10:38.525Z,100768.95
2019-03-02T09:13:10.709Z,100767.67
2019-03-02T09:15:43.219Z,100768.97
2019-03-02T09:18:16.012Z,100770.28
2019-03-02T09:20:47.995Z,100767.66
2019-03-02T09:23:19.907Z,100770.73
2019-03-02T09:25:51.753Z,100782.55
2019-03-02T09:28:23.639Z,100782.99
2019-03-02T09:30:58.786Z,100786.93
2019-03-02T09:33:29.948Z,100784.67
2019-03-02T09:36:01.817Z,100791.21
2019-03-02T09:38:33.769Z,100792.50
2019-03-02T09:41:05.567Z,100784.06
2019-03-02T09:43:37.447Z,100783.45
2019-03-02T09:46:09.261Z,100778.02
2019-03-02T09:48:41.126Z,100781.74
2019-03-02T09:51:13.045Z,100781.16
2019-03-02T09:53:44.846Z,100780.77
2019-03-02T09:56:16.775Z,100780.13
2019-03-02T09:58:48.752Z,100779.95
2019-03-02T10:01:20.567Z,100780.42
2019-03-02T10:03:52.365Z,100784.81
2019-03-02T10:06:25.287Z,100785.78
2019-03-02T10:08:57.931Z,100790.75
2019-03-02T10:11:29.718Z,100788.11
2019-03-02T10:14:01.599Z,100788.14
2019-03-02T10:16:33.499Z,100788.98
2019-03-02T10:19:05.295Z,100785.02
2019-03-02T10:21:37.111Z,100787.53
2019-03-02T10:24:08.976Z,100783.83
2019-03-02T10:27:09.410Z,100787.90
2019-03-02T10:29:44.263Z,100791.09
2019-03-02T11:55:53.236Z,100759.07
2019-03-02T12:03:28.711Z,100749.52
2019-03-02T12:07:02.497Z,100748.75
2019-03-02T12:09:49.780Z,100742.88
2019-03-02T12:12:51.285Z,100741.73
2019-03-02T12:15:54.349Z,100735.59
2019-03-02T12:18:51.050Z,100729.64
2019-03-02T12:22:04.227Z,100731.41
2019-03-02T12:24:59.742Z,100735.28
2019-03-02T12:27:55.148Z,100739.92
2019-03-02T12:30:52.351Z,100734.35
2019-03-02T12:33:47.957Z,100737.36
2019-03-02T12:37:01.380Z,100729.33
2019-03-02T12:40:04.743Z,100724.09
2019-03-02T12:43:04.105Z,100727.22
2019-03-02T12:46:16.949Z,100722.66
2019-03-02T12:49:19.050Z,100712.58
2019-03-02T12:52:06.386Z,100712.91
2019-03-02T12:55:32.816Z,100706.28
2019-03-02T13:31:09.095Z,100713.84
2019-03-02T13:34:38.056Z,100707.30
2019-03-02T13:37:33.295Z,100705.05
2019-03-02T13:44:31.729Z,100695.80
2019-03-02T13:48:08.100Z,100692.61
2019-03-02T13:51:49.824Z,100683.13
2019-03-02T13:54:29.620Z,100671.97
2019-03-02T13:57:43.200Z,100672.65
2019-03-02T14:00:40.661Z,100675.92
2019-03-02T14:03:33.055Z,100677.20
2019-03-02T14:06:24.045Z,100670.11
2019-03-02T14:09:27.558Z,100673.86
2019-03-02T14:12:19.918Z,100674.34
2019-03-02T14:15:12.572Z,100670.72
2019-03-02T14:18:03.464Z,100666.98
2019-03-02T14:21:04.485Z,100667.13
2019-03-02T14:24:03.848Z,100667.31
2019-03-02T14:26:44.541Z,100659.34
2019-03-02T14:29:47.098Z,100621.91
2019-03-02T14:32:40.303Z,100658.18
2019-03-02T14:35:21.857Z,100665.73
2019-03-02T14:38:12.676Z,100660.55
2019-03-02T14:41:12.806Z,100654.81
2019-03-02T14:44:02.342Z,100651.39
2019-03-02T14:46:52.016Z,100652.04
2019-03-02T14:49:45.388Z,100652.06
2019-03-02T14:52:43.456Z,100652.34
2019-03-02T14:55:51.207Z,100651.73
2019-03-02T14:58:53.998Z,100644.73
2019-03-02T15:01:54.155Z,100456.59
2019-03-02T15:04:57.149Z,100641.28
2019-03-02T15:07:47.873Z,100643.89
2019-03-02T15:10:26.867Z,100644.48
2019-03-02T15:13:16.280Z,100638.95
2019-03-02T15:16:11.710Z,100639.54
2019-03-02T15:19:18.386Z,100635.65
2019-03-02T15:22:00.485Z,100640.97
2019-03-02T15:24:54.931Z,100639.23
2019-03-02T15:27:48.901Z,100637.64
2019-03-02T15:30:45.807Z,100634.63
2019-03-02T15:33:46.770Z,100633.35
2019-03-02T15:36:43.951Z,100636.52
2019-03-02T15:39:39.437Z,100638.75
2019-03-02T15:42:49.940Z,100635.23
2019-03-02T15:45:39.361Z,100630.86
2019-03-02T15:48:33.445Z,100637.39
2019-03-02T15:51:23.141Z,100642.29
2019-03-02T15:54:09.501Z,100637.03
2019-03-02T15:56:56.243Z,100636.99
2019-03-02T15:59:57.107Z,100635.72
2019-03-02T16:02:42.097Z,100638.38
2019-03-02T16:05:39.396Z,100638.00
2019-03-02T16:08:33.168Z,100643.72
2019-03-02T16:12:25.137Z,100645.03
2019-03-02T16:15:57.707Z,100641.98
2019-03-02T16:27:07.800Z,100624.05
2019-03-02T16:30:34.689Z,100618.80
2019-03-02T16:33:27.304Z,100627.58
2019-03-02T16:36:07.485Z,100624.09
2019-03-02T16:39:08.176Z,100625.81
2019-03-02T16:42:19.254Z,100624.94
2019-03-02T16:44:59.054Z,100625.83
2019-03-02T16:47:48.605Z,100629.77
2019-03-02T16:53:57.319Z,100626.29
2019-03-02T16:56:45.767Z,100620.16
2019-03-02T16:59:44.861Z,100618.40
2019-03-02T17:02:48.251Z,100617.09
2019-03-02T17:05:51.181Z,100619.72
2019-03-02T17:08:36.750Z,100632.83
2019-03-02T17:11:19.932Z,100623.21
2019-03-02T17:14:15.135Z,100623.20
2019-03-02T17:17:17.312Z,100626.27
2019-03-02T17:20:01.334Z,100621.02
2019-03-02T17:22:50.735Z,100624.09
2019-03-02T17:25:37.445Z,100622.76
2019-03-02T17:28:31.582Z,100627.13
2019-03-02T17:31:36.142Z,100617.97
2019-03-02T17:34:25.811Z,100617.51
2019-03-02T17:37:36.106Z,100625.39
2019-03-02T17:40:42.249Z,100622.77
2019-03-02T17:43:31.038Z,100628.45
2019-03-02T17:46:15.224Z,100619.69
2019-03-02T17:49:10.888Z,100617.50
2019-03-02T17:52:00.586Z,100614.89
2019-03-02T17:54:42.582Z,100616.20
2019-03-02T17:57:33.723Z,100618.36
2019-03-02T18:00:19.642Z,100617.46
2019-03-02T18:03:12.046Z,100620.52
2019-03-02T18:06:05.250Z,100618.34
2019-03-02T18:09:06.285Z,100621.42
2019-03-02T18:12:07.941Z,100621.83
2019-03-02T18:14:59.806Z,100626.21
2019-03-02T18:18:07.687Z,100626.20
2019-03-02T18:20:44.618Z,100627.97
2019-03-02T18:23:18.859Z,100617.91
2019-03-02T18:25:51.112Z,100619.64
2019-03-02T18:28:23.313Z,100614.82
2019-03-02T18:30:57.373Z,100611.79
2019-03-02T18:33:48.788Z,100619.20
2019-03-02T18:36:22.144Z,100609.14
2019-03-02T18:38:55.860Z,100609.55
2019-03-02T18:41:28.353Z,100603.46
2019-03-02T18:44:00.541Z,100610.45
2019-03-02T18:46:33.756Z,100603.89
2019-03-02T18:49:20.150Z,100614.38
2019-03-02T18:52:23.517Z,100615.70
2019-03-02T18:55:11.653Z,100603.92
2019-03-02T18:57:46.600Z,100603.91
2019-03-02T19:00:24.142Z,100611.78
2019-03-02T19:03:14.522Z,100610.03
2019-03-02T19:05:51.674Z,100603.44
2019-03-02T19:08:27.862Z,100602.59
2019-03-02T19:11:05.094Z,100603.88
2019-03-02T19:13:40.694Z,100606.95
2019-03-02T19:16:11.228Z,100605.65
2019-03-02T19:18:43.419Z,100601.73
2019-03-02T19:21:24.415Z,100605.66
2019-03-02T19:24:04.644Z,100612.21
2019-03-02T19:26:37.324Z,100598.23
2019-03-02T19:30:05.310Z,100596.93
2019-03-02T19:32:46.828Z,100599.52
2019-03-02T19:39:25.803Z,100602.17
2019-03-02T19:42:46.281Z,100595.20
2019-03-02T19:46:58.914Z,100591.68
2019-03-02T22:50:22.328Z,100452.25
2019-03-02T22:52:54.526Z,100447.44
2019-03-02T22:55:27.750Z,100437.81
2019-03-02T22:58:00.853Z,100433.45
2019-03-02T23:01:23.879Z,100431.69
2019-03-02T23:03:57.469Z,100425.13
2019-03-02T23:06:29.428Z,100415.48
2019-03-02T23:09:01.330Z,100411.99
2019-03-02T23:11:34.785Z,100407.22
2019-03-02T23:14:06.749Z,100402.86
2019-03-02T23:16:38.685Z,100404.19
2019-03-02T23:19:10.534Z,100407.22
2019-03-02T23:21:42.414Z,100407.22
2019-03-02T23:24:14.288Z,100412.84
2019-03-02T23:26:46.237Z,100414.17
2019-03-02T23:29:18.197Z,100407.61
2019-03-02T23:31:50.241Z,100408.48
2019-03-02T23:34:22.169Z,100411.13
2019-03-02T23:36:54.153Z,100406.33
2019-03-02T23:39:26.105Z,100407.62
2019-03-02T23:41:57.993Z,100403.28
2019-03-02T23:44:29.817Z,100402.44
2019-03-02T23:47:01.796Z,100395.00
2019-03-02T23:49:33.730Z,100395.02
2019-03-02T23:52:05.562Z,100388.45
2019-03-02T23:54:37.477Z,100398.49
2019-03-02T23:57:09.342Z,100398.92
2019-03-02T23:59:41.345Z,100395.43
